Time;durP1;ratioP1;P1;durP2;ratioP2;P2;SDS_P1;SDS_P2;PMS_P1;PMS_P2;Temp;Humidity;BMP_temperature;BMP_pressure;BME280_temperature;BME280_humidity;BME280_pressure;Samples;Min_cycle;Max_cycle;Signal;HPM_P1;HPM_P2
2022/09/30 00:01:28;;;;;;;3.17;2.97;;;;;;;;;;5056791;28;20206;-80
2022/09/30 00:03:55;;;;;;;8.83;3.60;;;;;;;;;;5056669;28;20237;-80
2022/09/30 00:06:22;;;;;;;3.30;3.00;;;;;;;;;;5056938;28;20225;-81
2022/09/30 00:08:50;;;;;;;4.47;3.30;;;;;;;;;;5056413;28;20724;-81
2022/09/30 00:11:18;;;;;;;3.53;3.23;;;;;;;;;;5057219;28;20217;-80
2022/09/30 00:13:46;;;;;;;4.33;3.30;;;;;;;;;;5061572;28;20244;-81
2022/09/30 00:16:15;;;;;;;5.40;3.60;;;;;;;;;;5059226;28;20217;-81
2022/09/30 00:18:43;;;;;;;4.10;3.70;;;;;;;;;;5057031;28;20244;-82
2022/09/30 00:21:11;;;;;;;6.13;3.30;;;;;;;;;;5058103;28;20571;-81
2022/09/30 00:23:38;;;;;;;3.67;3.37;;;;;;;;;;5057137;28;20299;-80
2022/09/30 00:26:06;;;;;;;5.67;3.30;;;;;;;;;;5057477;28;20202;-81
2022/09/30 00:28:34;;;;;;;6.33;3.60;;;;;;;;;;5056232;28;20593;-81
2022/09/30 00:31:01;;;;;;;8.10;4.40;;;;;;;;;;5056901;28;20216;-81
2022/09/30 00:33:29;;;;;;;6.33;4.23;;;;;;;;;;5055710;28;20236;-83
2022/09/30 00:35:57;;;;;;;6.90;4.20;;;;;;;;;;5055992;28;20659;-80
2022/09/30 00:38:24;;;;;;;5.40;3.70;;;;;;;;;;5054970;28;20260;-80
2022/09/30 00:40:51;;;;;;;5.40;3.73;;;;;;;;;;5055419;28;20213;-80
2022/09/30 00:43:19;;;;;;;5.67;3.63;;;;;;;;;;5055044;28;20233;-80
2022/09/30 00:45:50;;;;;;;5.13;3.47;;;;;;;;;;5056291;28;20210;-80
2022/09/30 00:48:19;;;;;;;5.03;3.53;;;;;;;;;;5044534;28;20239;-82
2022/09/30 00:50:49;;;;;;;8.07;3.40;;;;;;;;;;5052174;28;20217;-80
2022/09/30 00:53:19;;;;;;;3.20;2.90;;;;;;;;;;5055384;28;20229;-80
2022/09/30 00:55:52;;;;;;;7.73;3.30;;;;;;;;;;5055373;28;20221;-80
2022/09/30 00:58:24;;;;;;;5.23;2.80;;;;;;;;;;5055233;28;20606;-81
2022/09/30 01:00:51;;;;;;;5.63;2.83;;;;;;;;;;5055858;28;20248;-81
2022/09/30 01:03:19;;;;;;;5.23;3.77;;;;;;;;;;5055509;28;20237;-80
2022/09/30 01:05:48;;;;;;;3.07;2.73;;;;;;;;;;5050217;28;20206;-80
2022/09/30 01:08:17;;;;;;;3.30;2.87;;;;;;;;;;5054827;28;20233;-80
2022/09/30 01:10:44;;;;;;;3.67;3.37;;;;;;;;;;5056215;28;20206;-83
2022/09/30 01:13:11;;;;;;;4.87;3.47;;;;;;;;;;5055135;28;20232;-81
2022/09/30 01:15:44;;;;;;;7.30;3.57;;;;;;;;;;5055965;28;20206;-81
2022/09/30 01:18:17;;;;;;;5.20;3.13;;;;;;;;;;5054750;28;20230;-81
2022/09/30 01:21:12;;;;;;;8.80;4.73;;;;;;;;;;5056269;28;20190;-81
2022/09/30 01:23:58;;;;;;;4.00;3.60;;;;;;;;;;5042989;28;20611;-82
2022/09/30 01:26:43;;;;;;;3.80;3.50;;;;;;;;;;5048045;28;20703;-82
2022/09/30 01:29:26;;;;;;;4.13;3.30;;;;;;;;;;5036339;28;20230;-83
2022/09/30 01:31:57;;;;;;;4.23;3.33;;;;;;;;;;5037078;28;20187;-82
2022/09/30 01:34:31;;;;;;;4.37;3.60;;;;;;;;;;5035852;28;20245;-83
2022/09/30 01:37:04;;;;;;;7.27;3.70;;;;;;;;;;5036880;28;20726;-83
2022/09/30 01:39:37;;;;;;;6.93;3.57;;;;;;;;;;5037780;28;20238;-81
2022/09/30 01:42:08;;;;;;;4.77;3.73;;;;;;;;;;5038565;28;20586;-81
2022/09/30 01:44:38;;;;;;;3.90;3.40;;;;;;;;;;5051050;28;20230;-82
2022/09/30 01:47:09;;;;;;;7.90;3.47;;;;;;;;;;5044673;28;20226;-82
2022/09/30 01:49:40;;;;;;;3.90;3.60;;;;;;;;;;5037765;28;20237;-82
2022/09/30 01:52:09;;;;;;;6.10;3.83;;;;;;;;;;5038245;28;20191;-82
2022/09/30 01:54:40;;;;;;;5.20;4.00;;;;;;;;;;5037647;28;20600;-82
2022/09/30 01:57:10;;;;;;;7.60;3.83;;;;;;;;;;5037538;28;20405;-82
2022/09/30 01:59:39;;;;;;;4.17;3.87;;;;;;;;;;5037218;28;20231;-82
2022/09/30 02:02:10;;;;;;;5.50;3.40;;;;;;;;;;5037865;28;20202;-82
2022/09/30 02:04:40;;;;;;;3.90;3.10;;;;;;;;;;5037542;28;20234;-84
2022/09/30 02:07:09;;;;;;;3.50;3.20;;;;;;;;;;5037486;28;20284;-82
2022/09/30 02:09:39;;;;;;;3.40;3.10;;;;;;;;;;5037118;28;20234;-81
2022/09/30 02:12:08;;;;;;;7.33;3.60;;;;;;;;;;5037791;28;20210;-82
2022/09/30 02:17:44;;;;;;;5.17;3.80;;;;;;;;;;5044377;28;20208;-82
2022/09/30 02:20:12;;;;;;;3.60;3.30;;;;;;;;;;5057129;28;20210;-82
2022/09/30 02:22:43;;;;;;;8.73;3.60;;;;;;;;;;5056886;28;20435;-81
2022/09/30 02:25:12;;;;;;;4.20;3.80;;;;;;;;;;5057197;28;20273;-82
2022/09/30 02:27:41;;;;;;;4.13;3.70;;;;;;;;;;5056278;28;20702;-81
2022/09/30 02:30:10;;;;;;;4.80;3.57;;;;;;;;;;5057228;28;20244;-82
2022/09/30 02:32:39;;;;;;;4.60;3.90;;;;;;;;;;5056897;28;20248;-82
2022/09/30 02:35:10;;;;;;;4.70;3.60;;;;;;;;;;5055642;28;20225;-82
2022/09/30 02:37:40;;;;;;;5.33;3.67;;;;;;;;;;5055917;28;20280;-83
2022/09/30 02:40:09;;;;;;;5.10;3.60;;;;;;;;;;5056359;28;20232;-81
2022/09/30 02:42:37;;;;;;;3.80;3.43;;;;;;;;;;5058731;28;20572;-80
2022/09/30 02:45:07;;;;;;;4.00;3.60;;;;;;;;;;5055987;28;20275;-81
2022/09/30 02:47:42;;;;;;;4.40;4.00;;;;;;;;;;5056105;28;20729;-82
2022/09/30 02:50:13;;;;;;;7.83;3.90;;;;;;;;;;5056012;28;20228;-82
2022/09/30 02:52:45;;;;;;;5.50;4.10;;;;;;;;;;5055611;28;20203;-82
2022/09/30 02:55:16;;;;;;;4.00;3.70;;;;;;;;;;5056057;28;20565;-82
2022/09/30 02:57:50;;;;;;;4.80;4.33;;;;;;;;;;5055202;28;20883;-82
2022/09/30 03:00:17;;;;;;;4.57;3.90;;;;;;;;;;5056295;28;20213;-82
2022/09/30 03:02:44;;;;;;;4.07;3.53;;;;;;;;;;5055810;28;20590;-82
2022/09/30 03:05:13;;;;;;;8.27;4.50;;;;;;;;;;5055932;28;20209;-82
2022/09/30 03:07:41;;;;;;;4.67;4.27;;;;;;;;;;5055896;28;20283;-82
2022/09/30 03:10:12;;;;;;;4.63;4.07;;;;;;;;;;5056048;28;20206;-82
2022/09/30 03:12:43;;;;;;;5.50;4.20;;;;;;;;;;5055755;28;20221;-81
2022/09/30 03:15:23;;;;;;;4.43;3.63;;;;;;;;;;5056551;28;20202;-82
2022/09/30 03:18:01;;;;;;;5.80;3.83;;;;;;;;;;5055670;28;20249;-82
2022/09/30 03:20:37;;;;;;;6.63;3.90;;;;;;;;;;5055474;28;20190;-82
2022/09/30 03:23:12;;;;;;;7.30;3.93;;;;;;;;;;5055192;28;20229;-79
2022/09/30 03:25:44;;;;;;;11.47;3.93;;;;;;;;;;5056092;28;20190;-82
2022/09/30 03:28:17;;;;;;;4.87;3.70;;;;;;;;;;5055088;28;20261;-82
2022/09/30 03:30:47;;;;;;;5.53;3.87;;;;;;;;;;5050966;28;20584;-81
2022/09/30 03:33:20;;;;;;;5.70;4.27;;;;;;;;;;5047310;28;20229;-81
2022/09/30 03:35:53;;;;;;;4.83;4.40;;;;;;;;;;5055460;28;20281;-82
2022/09/30 03:38:26;;;;;;;4.40;4.00;;;;;;;;;;5054336;28;20240;-81
2022/09/30 03:40:57;;;;;;;5.00;4.30;;;;;;;;;;5039905;28;20222;-82
2022/09/30 03:43:27;;;;;;;4.40;4.00;;;;;;;;;;5034564;28;20253;-82
2022/09/30 03:45:56;;;;;;;4.57;4.17;;;;;;;;;;5035108;28;20701;-81
2022/09/30 03:48:25;;;;;;;4.73;4.07;;;;;;;;;;5041154;28;20237;-80
2022/09/30 03:50:53;;;;;;;4.27;3.93;;;;;;;;;;5039759;28;20218;-82
2022/09/30 03:53:20;;;;;;;5.67;4.77;;;;;;;;;;5036276;28;20245;-82
2022/09/30 03:55:48;;;;;;;5.70;5.07;;;;;;;;;;5038815;28;20580;-82
2022/09/30 03:58:16;;;;;;;5.70;5.20;;;;;;;;;;5035141;28;20245;-82
2022/09/30 04:00:46;;;;;;;6.57;5.23;;;;;;;;;;5035631;28;20211;-82
2022/09/30 04:03:14;;;;;;;7.63;5.20;;;;;;;;;;5034112;28;20239;-84
2022/09/30 04:05:41;;;;;;;6.83;4.67;;;;;;;;;;5034974;28;20211;-84
2022/09/30 04:08:10;;;;;;;8.90;4.80;;;;;;;;;;5053253;28;20242;-83
2022/09/30 04:10:37;;;;;;;10.03;4.80;;;;;;;;;;5052848;28;20202;-83
2022/09/30 04:13:04;;;;;;;15.37;5.07;;;;;;;;;;5049451;28;20230;-82
2022/09/30 04:15:31;;;;;;;4.67;4.27;;;;;;;;;;5045193;28;20194;-83
2022/09/30 04:17:59;;;;;;;9.20;4.80;;;;;;;;;;5059341;28;20242;-82
2022/09/30 04:20:26;;;;;;;6.97;4.83;;;;;;;;;;5058350;28;20579;-81
2022/09/30 04:22:53;;;;;;;6.20;4.50;;;;;;;;;;5038958;28;20211;-82
2022/09/30 04:25:21;;;;;;;6.80;4.33;;;;;;;;;;5039293;28;20206;-81
2022/09/30 04:27:48;;;;;;;6.13;4.40;;;;;;;;;;5038143;28;20230;-81
2022/09/30 04:30:15;;;;;;;11.90;4.97;;;;;;;;;;5052386;28;20206;-81
2022/09/30 04:32:44;;;;;;;9.50;4.63;;;;;;;;;;5055503;28;20217;-82
2022/09/30 04:35:11;;;;;;;25.83;5.10;;;;;;;;;;5054046;28;20202;-81
2022/09/30 04:37:41;;;;;;;5.27;3.93;;;;;;;;;;5041193;28;20223;-80
2022/09/30 04:40:10;;;;;;;29.10;6.07;;;;;;;;;;5040025;28;20583;-81
2022/09/30 04:42:38;;;;;;;15.07;5.70;;;;;;;;;;5038913;28;20237;-81
2022/09/30 04:45:06;;;;;;;12.23;5.53;;;;;;;;;;5057778;28;20254;-82
2022/09/30 04:47:33;;;;;;;9.30;5.50;;;;;;;;;;5053910;28;20702;-81
2022/09/30 04:50:00;;;;;;;8.50;4.83;;;;;;;;;;5054158;28;20238;-81
2022/09/30 04:52:27;;;;;;;21.10;5.27;;;;;;;;;;5054536;28;20206;-82
2022/09/30 04:54:54;;;;;;;18.80;7.40;;;;;;;;;;5054421;28;20230;-81
2022/09/30 04:57:21;;;;;;;15.83;5.40;;;;;;;;;;5055531;28;20226;-81
2022/09/30 04:59:50;;;;;;;15.10;5.40;;;;;;;;;;5062574;28;20595;-82
2022/09/30 05:02:17;;;;;;;11.40;5.17;;;;;;;;;;5058524;28;20209;-82
2022/09/30 05:04:45;;;;;;;26.53;5.47;;;;;;;;;;5053548;28;20313;-82
2022/09/30 05:07:12;;;;;;;11.57;5.40;;;;;;;;;;5054538;28;20569;-81
2022/09/30 05:09:39;;;;;;;19.30;4.67;;;;;;;;;;5054439;28;20252;-81
2022/09/30 05:12:07;;;;;;;13.63;4.50;;;;;;;;;;5055904;28;20213;-83
2022/09/30 05:14:34;;;;;;;12.47;4.33;;;;;;;;;;5062457;28;20236;-81
2022/09/30 05:17:03;;;;;;;12.20;3.97;;;;;;;;;;5049769;28;20222;-82
2022/09/30 05:19:30;;;;;;;20.77;4.40;;;;;;;;;;5033357;28;20239;-82
2022/09/30 05:21:57;;;;;;;11.23;3.90;;;;;;;;;;5034100;28;20289;-82
2022/09/30 05:24:24;;;;;;;17.97;4.67;;;;;;;;;;5035478;28;20242;-81
2022/09/30 05:26:51;;;;;;;8.90;4.03;;;;;;;;;;5052918;28;20275;-83
2022/09/30 05:29:18;;;;;;;13.80;4.43;;;;;;;;;;5053228;28;20238;-83
2022/09/30 05:31:45;;;;;;;13.13;4.00;;;;;;;;;;5054224;28;20223;-82
2022/09/30 05:34:15;;;;;;;12.60;4.10;;;;;;;;;;5054765;28;20237;-81
2022/09/30 05:36:43;;;;;;;9.13;4.23;;;;;;;;;;5054435;28;20249;-82
2022/09/30 05:39:10;;;;;;;16.97;4.80;;;;;;;;;;5036132;28;20258;-82
2022/09/30 05:41:37;;;;;;;14.40;4.90;;;;;;;;;;5036961;28;20213;-82
2022/09/30 05:44:06;;;;;;;11.20;5.23;;;;;;;;;;5042043;28;20625;-82
2022/09/30 05:46:33;;;;;;;6.67;4.80;;;;;;;;;;5050152;28;20629;-81
2022/09/30 05:49:00;;;;;;;19.80;5.13;;;;;;;;;;5035835;28;20599;-81
2022/09/30 05:51:28;;;;;;;25.53;5.47;;;;;;;;;;5040715;28;20561;-84
2022/09/30 05:53:55;;;;;;;42.63;6.67;;;;;;;;;;5048207;28;20593;-82
2022/09/30 05:56:22;;;;;;;12.60;5.33;;;;;;;;;;5068334;28;20227;-80
2022/09/30 05:58:49;;;;;;;40.83;6.07;;;;;;;;;;5055764;28;20366;-82
2022/09/30 06:01:17;;;;;;;35.00;6.17;;;;;;;;;;5042246;28;20198;-82
2022/09/30 06:03:44;;;;;;;23.47;6.00;;;;;;;;;;5039621;28;20221;-78
2022/09/30 06:06:12;;;;;;;126.50;17.47;;;;;;;;;;5064597;28;20192;-80
2022/09/30 06:08:42;;;;;;;45.83;6.33;;;;;;;;;;5069929;28;20254;-80
2022/09/30 06:11:11;;;;;;;27.97;6.10;;;;;;;;;;5063087;28;20183;-83
2022/09/30 06:13:38;;;;;;;26.00;7.40;;;;;;;;;;5065016;28;20249;-80
2022/09/30 06:16:06;;;;;;;48.23;6.77;;;;;;;;;;5063653;28;20210;-78
2022/09/30 06:18:33;;;;;;;57.10;7.13;;;;;;;;;;5067756;28;20230;-80
2022/09/30 06:21:03;;;;;;;35.03;6.17;;;;;;;;;;5072117;28;20186;-80
2022/09/30 06:23:30;;;;;;;29.70;6.33;;;;;;;;;;5063367;28;20234;-82
2022/09/30 06:25:59;;;;;;;28.33;6.67;;;;;;;;;;5054746;28;20277;-85
2022/09/30 06:28:26;;;;;;;39.43;5.50;;;;;;;;;;5037582;28;20226;-83
2022/09/30 06:30:53;;;;;;;40.43;6.30;;;;;;;;;;5053774;28;20202;-84
2022/09/30 06:33:21;;;;;;;30.70;6.83;;;;;;;;;;5057623;28;20229;-84
2022/09/30 06:35:48;;;;;;;29.43;5.97;;;;;;;;;;5038402;28;20218;-85
2022/09/30 06:38:15;;;;;;;35.20;6.23;;;;;;;;;;5064269;28;20230;-80
2022/09/30 06:40:43;;;;;;;21.90;6.47;;;;;;;;;;5065642;28;20225;-84
2022/09/30 06:43:12;;;;;;;17.47;6.03;;;;;;;;;;5045008;28;20237;-84
2022/09/30 06:45:39;;;;;;;12.00;6.13;;;;;;;;;;5049720;28;20238;-84
2022/09/30 06:48:07;;;;;;;23.23;6.47;;;;;;;;;;5059849;28;20240;-82
2022/09/30 06:50:37;;;;;;;12.83;5.77;;;;;;;;;;5067140;28;20206;-82
2022/09/30 06:53:06;;;;;;;12.53;5.23;;;;;;;;;;5052887;28;20237;-84
2022/09/30 06:55:35;;;;;;;8.90;5.50;;;;;;;;;;5044446;28;20222;-83
2022/09/30 06:58:02;;;;;;;18.17;5.90;;;;;;;;;;5050744;28;20311;-84
2022/09/30 07:00:30;;;;;;;14.37;5.80;;;;;;;;;;5055991;28;20661;-83
2022/09/30 07:02:58;;;;;;;21.43;5.90;;;;;;;;;;5055160;28;20210;-84
2022/09/30 07:05:25;;;;;;;21.83;5.63;;;;;;;;;;5055351;28;20222;-85
2022/09/30 07:07:52;;;;;;;12.90;4.70;;;;;;;;;;5054792;28;20267;-84
2022/09/30 07:10:19;;;;;;;17.07;4.80;;;;;;;;;;5055457;28;20248;-84
2022/09/30 07:12:49;;;;;;;26.23;5.93;;;;;;;;;;5055110;28;20674;-85
2022/09/30 07:15:16;;;;;;;19.07;5.40;;;;;;;;;;5055694;28;20190;-85
2022/09/30 07:17:45;;;;;;;17.87;4.20;;;;;;;;;;5054695;28;20222;-81
2022/09/30 07:20:13;;;;;;;13.07;4.30;;;;;;;;;;5055657;28;20221;-84
2022/09/30 07:22:41;;;;;;;10.23;4.17;;;;;;;;;;5055567;28;20249;-84
2022/09/30 07:25:08;;;;;;;16.57;4.17;;;;;;;;;;5056483;28;20226;-82
2022/09/30 07:27:36;;;;;;;29.07;5.17;;;;;;;;;;5057522;28;20266;-84
2022/09/30 07:30:04;;;;;;;38.60;9.00;;;;;;;;;;5056502;28;20229;-84
2022/09/30 07:32:32;;;;;;;6.07;4.40;;;;;;;;;;5056598;28;20229;-84
2022/09/30 07:35:00;;;;;;;12.53;4.80;;;;;;;;;;5056194;28;20230;-83
2022/09/30 07:37:29;;;;;;;6.20;4.80;;;;;;;;;;5056056;28;20222;-84
2022/09/30 07:39:56;;;;;;;10.00;5.40;;;;;;;;;;5054705;28;20249;-84
2022/09/30 07:42:23;;;;;;;12.47;5.83;;;;;;;;;;5059194;28;20224;-82
2022/09/30 07:44:51;;;;;;;5.80;5.20;;;;;;;;;;5062057;28;20337;-80
2022/09/30 07:47:19;;;;;;;7.03;5.33;;;;;;;;;;5060196;28;20318;-82
2022/09/30 07:49:47;;;;;;;13.23;6.20;;;;;;;;;;5053999;28;20236;-83
2022/09/30 07:52:15;;;;;;;6.97;5.90;;;;;;;;;;5055013;28;20304;-84
2022/09/30 07:54:43;;;;;;;13.17;6.80;;;;;;;;;;5041851;28;20227;-84
2022/09/30 07:57:10;;;;;;;8.03;6.17;;;;;;;;;;5037395;28;20227;-84
2022/09/30 07:59:38;;;;;;;10.30;6.17;;;;;;;;;;5045720;28;20288;-84
2022/09/30 08:02:06;;;;;;;11.83;6.63;;;;;;;;;;5054762;28;20198;-83
2022/09/30 08:04:33;;;;;;;7.47;6.67;;;;;;;;;;5053531;28;20709;-83
2022/09/30 08:07:01;;;;;;;9.00;6.67;;;;;;;;;;5037000;28;20254;-84
2022/09/30 08:09:30;;;;;;;7.43;6.27;;;;;;;;;;5048643;28;20244;-84
2022/09/30 08:11:57;;;;;;;9.17;6.50;;;;;;;;;;5054213;28;20198;-81
2022/09/30 08:14:25;;;;;;;12.63;6.40;;;;;;;;;;5053881;28;20622;-83
2022/09/30 08:16:52;;;;;;;7.50;6.63;;;;;;;;;;5054625;28;20283;-83
2022/09/30 08:19:20;;;;;;;7.57;6.77;;;;;;;;;;5053849;28;20229;-82
2022/09/30 08:21:48;;;;;;;11.17;7.67;;;;;;;;;;5054322;28;20613;-81
2022/09/30 08:24:15;;;;;;;8.63;7.53;;;;;;;;;;5054095;28;20226;-82
2022/09/30 08:26:43;;;;;;;12.17;8.63;;;;;;;;;;5055935;28;20221;-82
2022/09/30 08:29:13;;;;;;;9.13;7.97;;;;;;;;;;5053580;28;20238;-82
2022/09/30 08:31:41;;;;;;;9.40;8.03;;;;;;;;;;5053915;28;20206;-82
2022/09/30 08:34:08;;;;;;;11.53;8.20;;;;;;;;;;5053160;28;20230;-83
2022/09/30 08:36:35;;;;;;;13.43;8.60;;;;;;;;;;5053657;28;20230;-83
2022/09/30 08:39:02;;;;;;;8.50;7.60;;;;;;;;;;5052694;28;20889;-81
2022/09/30 08:41:37;;;;;;;11.53;8.23;;;;;;;;;;5053539;28;20674;-83
2022/09/30 08:44:14;;;;;;;13.63;8.70;;;;;;;;;;5053251;28;20234;-81
2022/09/30 08:46:45;;;;;;;9.17;8.13;;;;;;;;;;5053669;28;20729;-83
2022/09/30 08:49:19;;;;;;;10.17;8.30;;;;;;;;;;5053179;28;20236;-83
2022/09/30 08:51:48;;;;;;;8.87;7.80;;;;;;;;;;5043291;28;20224;-83
2022/09/30 08:54:16;;;;;;;9.60;8.03;;;;;;;;;;5053324;28;20230;-83
2022/09/30 08:56:44;;;;;;;8.20;7.23;;;;;;;;;;5040043;28;20224;-83
2022/09/30 08:59:20;;;;;;;11.67;8.67;;;;;;;;;;5052197;28;20233;-82
2022/09/30 09:01:49;;;;;;;9.00;8.10;;;;;;;;;;5053649;28;20197;-82
2022/09/30 09:04:17;;;;;;;8.83;7.77;;;;;;;;;;5047541;28;20234;-83
2022/09/30 09:06:53;;;;;;;9.63;7.83;;;;;;;;;;5044856;28;20692;-83
2022/09/30 09:09:31;;;;;;;10.87;7.20;;;;;;;;;;5033416;28;20238;-83
2022/09/30 09:12:13;;;;;;;8.03;7.20;;;;;;;;;;5038286;28;20578;-82
2022/09/30 09:14:49;;;;;;;8.13;7.07;;;;;;;;;;5039248;28;20225;-82
2022/09/30 09:17:24;;;;;;;7.50;6.80;;;;;;;;;;5048534;28;20737;-82
2022/09/30 09:19:56;;;;;;;8.17;6.53;;;;;;;;;;5035223;28;20612;-83
2022/09/30 09:22:25;;;;;;;7.77;6.80;;;;;;;;;;5053869;28;20673;-82
2022/09/30 09:24:54;;;;;;;7.43;6.50;;;;;;;;;;5063079;28;20226;-82
2022/09/30 09:27:22;;;;;;;8.17;7.00;;;;;;;;;;5037938;28;20280;-82
2022/09/30 09:29:56;;;;;;;7.33;6.63;;;;;;;;;;5038577;28;20227;-82
2022/09/30 09:32:27;;;;;;;10.47;7.07;;;;;;;;;;5044636;28;20202;-83
2022/09/30 09:34:56;;;;;;;7.23;6.50;;;;;;;;;;5042560;28;20710;-84
2022/09/30 09:38:23;;;;;;;9.60;7.20;;;;;;;;;;5063733;28;20716;-83
2022/09/30 09:40:18;;;;;;;8.80;6.93;;;;;;;;;;5056229;28;20223;-83
2022/09/30 09:42:52;;;;;;;7.63;6.43;;;;;;;;;;5035830;28;20205;-83
2022/09/30 09:45:24;;;;;;;7.50;6.73;;;;;;;;;;5050239;28;20233;-82
2022/09/30 09:47:51;;;;;;;6.83;6.00;;;;;;;;;;5032136;28;20581;-83
2022/09/30 09:50:21;;;;;;;8.63;6.70;;;;;;;;;;5055765;28;20213;-83
2022/09/30 09:52:55;;;;;;;5.67;5.17;;;;;;;;;;5052279;28;20187;-82
2022/09/30 09:55:23;;;;;;;8.00;5.73;;;;;;;;;;5050681;28;20186;-82
2022/09/30 09:58:05;;;;;;;6.53;5.80;;;;;;;;;;5033620;28;20230;-82
2022/09/30 10:03:26;;;;;;;5.87;5.27;;;;;;;;;;5022198;28;20720;-81
2022/09/30 10:06:01;;;;;;;6.93;6.00;;;;;;;;;;5034083;28;20219;-81
2022/09/30 10:08:30;;;;;;;6.60;5.80;;;;;;;;;;5033688;28;20239;-81
2022/09/30 10:10:59;;;;;;;6.33;5.70;;;;;;;;;;5053090;28;20202;-82
2022/09/30 10:13:27;;;;;;;5.83;4.97;;;;;;;;;;5053527;28;20234;-82
2022/09/30 10:15:57;;;;;;;6.57;4.77;;;;;;;;;;5053254;28;20202;-82
2022/09/30 10:18:26;;;;;;;5.87;5.23;;;;;;;;;;5053174;28;20599;-82
2022/09/30 10:20:56;;;;;;;6.13;5.53;;;;;;;;;;5054470;28;20206;-82
2022/09/30 10:23:26;;;;;;;5.97;5.20;;;;;;;;;;5053458;28;20229;-82
2022/09/30 10:25:57;;;;;;;5.80;5.00;;;;;;;;;;5053495;28;20763;-82
2022/09/30 10:28:26;;;;;;;5.33;4.13;;;;;;;;;;5052305;28;20265;-82
2022/09/30 10:30:55;;;;;;;5.70;4.68;;;;;;;;;;5033781;28;20215;-82
2022/09/30 10:33:26;;;;;;;4.88;4.40;;;;;;;;;;5032945;28;20226;-82
2022/09/30 10:35:57;;;;;;;5.00;3.75;;;;;;;;;;5040686;28;20194;-82
2022/09/30 10:38:28;;;;;;;6.85;3.85;;;;;;;;;;5052535;28;20234;-82
2022/09/30 10:40:55;;;;;;;4.40;3.85;;;;;;;;;;5062393;28;20209;-82
2022/09/30 10:43:25;;;;;;;4.03;3.33;;;;;;;;;;5072148;28;20235;-82
2022/09/30 10:45:52;;;;;;;5.25;3.22;;;;;;;;;;5072561;28;20229;-82
2022/09/30 10:48:22;;;;;;;3.35;3.05;;;;;;;;;;5071302;28;20240;-82
2022/09/30 10:50:54;;;;;;;2.88;2.67;;;;;;;;;;5032379;28;20207;-81
2022/09/30 10:53:23;;;;;;;3.10;2.80;;;;;;;;;;5033836;28;20230;-82
2022/09/30 10:55:50;;;;;;;3.08;2.75;;;;;;;;;;5035221;28;20207;-82
2022/09/30 10:58:22;;;;;;;3.03;2.70;;;;;;;;;;5032773;28;20749;-82
2022/09/30 11:00:51;;;;;;;3.65;2.60;;;;;;;;;;5033144;28;20207;-81
2022/09/30 11:03:20;;;;;;;4.53;2.67;;;;;;;;;;5034114;28;20318;-82
2022/09/30 11:05:49;;;;;;;3.03;2.83;;;;;;;;;;5048446;28;20225;-82
2022/09/30 11:08:20;;;;;;;2.88;2.65;;;;;;;;;;5047307;28;20312;-83
2022/09/30 11:10:51;;;;;;;2.45;2.17;;;;;;;;;;5048396;28;20210;-83
2022/09/30 11:13:21;;;;;;;2.92;1.98;;;;;;;;;;5054510;28;20240;-83
2022/09/30 11:15:53;;;;;;;2.38;1.70;;;;;;;;;;5040845;28;20260;-83
2022/09/30 11:18:23;;;;;;;3.80;2.28;;;;;;;;;;5049038;28;20242;-83
2022/09/30 11:20:54;;;;;;;2.53;1.88;;;;;;;;;;5048935;28;20685;-82
2022/09/30 11:23:25;;;;;;;3.80;2.28;;;;;;;;;;5036854;28;20257;-82
2022/09/30 11:25:55;;;;;;;3.72;2.47;;;;;;;;;;5037092;28;20249;-81
2022/09/30 11:28:30;;;;;;;3.63;2.55;;;;;;;;;;5048032;28;20308;-81
2022/09/30 11:30:59;;;;;;;3.55;2.05;;;;;;;;;;5047408;28;20188;-83
2022/09/30 11:33:35;;;;;;;4.22;1.92;;;;;;;;;;5053637;28;20226;-81
2022/09/30 11:36:07;;;;;;;3.92;2.20;;;;;;;;;;5055794;28;20182;-82
2022/09/30 11:38:49;;;;;;;2.42;2.08;;;;;;;;;;5053977;28;20230;-80
2022/09/30 11:41:20;;;;;;;3.50;1.92;;;;;;;;;;5053567;28;20197;-80
2022/09/30 11:43:52;;;;;;;2.38;2.17;;;;;;;;;;5045634;28;20463;-80
2022/09/30 11:46:34;;;;;;;2.13;1.92;;;;;;;;;;5036869;28;20313;-81
2022/09/30 11:49:13;;;;;;;2.28;1.90;;;;;;;;;;5048964;28;20233;-83
2022/09/30 11:51:44;;;;;;;2.63;2.10;;;;;;;;;;5033566;28;20187;-83
2022/09/30 11:54:20;;;;;;;3.38;2.05;;;;;;;;;;5033973;28;20230;-83
2022/09/30 11:56:53;;;;;;;3.60;2.35;;;;;;;;;;5034696;28;20226;-83
2022/09/30 11:59:23;;;;;;;2.40;2.20;;;;;;;;;;5033598;28;20241;-84
2022/09/30 12:01:51;;;;;;;2.00;1.83;;;;;;;;;;5034646;28;20203;-83
2022/09/30 12:04:21;;;;;;;3.30;2.13;;;;;;;;;;5051831;28;20238;-83
2022/09/30 12:06:51;;;;;;;2.58;1.77;;;;;;;;;;5054454;28;20256;-84
2022/09/30 12:09:20;;;;;;;5.13;1.90;;;;;;;;;;5054879;28;20744;-83
2022/09/30 12:11:52;;;;;;;3.42;2.50;;;;;;;;;;5056159;28;20209;-83
2022/09/30 12:14:23;;;;;;;2.92;1.92;;;;;;;;;;5051726;28;20226;-82
2022/09/30 12:16:51;;;;;;;4.88;1.60;;;;;;;;;;5055580;28;20246;-83
2022/09/30 12:19:20;;;;;;;2.28;1.60;;;;;;;;;;5054449;28;20234;-81
2022/09/30 12:21:52;;;;;;;3.28;1.90;;;;;;;;;;5055679;28;20700;-81
2022/09/30 12:24:22;;;;;;;4.32;1.83;;;;;;;;;;5055572;28;20238;-83
2022/09/30 12:26:51;;;;;;;2.03;1.58;;;;;;;;;;5076482;28;20230;-81
2022/09/30 12:32:15;;;;;;;1.40;1.30;;;;;;;;;;5078068;28;20209;-79
2022/09/30 12:34:50;;;;;;;2.20;1.83;;;;;;;;;;5077487;28;20237;-81
2022/09/30 12:37:26;;;;;;;2.08;1.88;;;;;;;;;;5076751;28;20232;-80
2022/09/30 12:40:04;;;;;;;2.67;1.73;;;;;;;;;;5072505;28;20237;-80
2022/09/30 12:42:47;;;;;;;4.45;1.88;;;;;;;;;;5069697;28;20186;-79
2022/09/30 12:45:33;;;;;;;4.47;2.08;;;;;;;;;;5058015;28;20226;-82
2022/09/30 12:48:02;;;;;;;4.20;1.85;;;;;;;;;;5049974;28;20235;-84
2022/09/30 12:50:33;;;;;;;2.30;1.98;;;;;;;;;;5034136;28;20213;-83
2022/09/30 12:53:10;;;;;;;2.10;1.73;;;;;;;;;;5033223;28;20721;-83
2022/09/30 12:55:38;;;;;;;2.53;1.95;;;;;;;;;;5033863;28;20187;-82
2022/09/30 12:58:08;;;;;;;2.53;2.10;;;;;;;;;;5032851;28;20255;-82
2022/09/30 13:00:36;;;;;;;1.90;1.73;;;;;;;;;;5033960;28;20218;-83
2022/09/30 13:03:05;;;;;;;2.97;2.20;;;;;;;;;;5049146;28;20226;-83
2022/09/30 13:05:52;;;;;;;2.55;1.80;;;;;;;;;;5053155;28;20221;-83
2022/09/30 13:08:46;;;;;;;1.90;1.80;;;;;;;;;;5046481;28;20674;-81
2022/09/30 13:11:32;;;;;;;2.33;1.90;;;;;;;;;;5033188;28;20577;-83
2022/09/30 13:14:04;;;;;;;3.50;1.70;;;;;;;;;;5032415;28;20238;-83
2022/09/30 13:16:53;;;;;;;3.08;2.00;;;;;;;;;;5033468;28;20233;-81
2022/09/30 13:19:21;;;;;;;4.18;1.83;;;;;;;;;;5034013;28;20657;-83
2022/09/30 13:21:48;;;;;;;2.00;1.90;;;;;;;;;;5041228;28;20206;-83
2022/09/30 13:24:16;;;;;;;3.35;1.88;;;;;;;;;;5041022;28;20233;-83
2022/09/30 13:26:50;;;;;;;2.35;2.08;;;;;;;;;;5041494;28;20318;-84
2022/09/30 13:29:38;;;;;;;3.03;2.13;;;;;;;;;;5041518;28;20245;-84
2022/09/30 13:32:09;;;;;;;5.18;2.22;;;;;;;;;;5040600;28;20241;-85
2022/09/30 13:35:04;;;;;;;2.05;1.70;;;;;;;;;;5039436;28;20257;-83
2022/09/30 13:37:32;;;;;;;2.75;1.80;;;;;;;;;;5003492;28;20227;-84
2022/09/30 13:40:01;;;;;;;3.33;1.90;;;;;;;;;;5054504;28;20230;-84
2022/09/30 13:42:30;;;;;;;3.35;2.00;;;;;;;;;;5039547;28;20673;-84
2022/09/30 13:45:00;;;;;;;3.05;1.75;;;;;;;;;;5048725;28;20234;-84
2022/09/30 13:47:30;;;;;;;3.40;1.55;;;;;;;;;;5041632;28;20236;-84
2022/09/30 13:50:00;;;;;;;2.42;2.08;;;;;;;;;;5038931;28;20235;-84
2022/09/30 13:52:30;;;;;;;2.80;1.90;;;;;;;;;;5040847;28;20603;-84
2022/09/30 13:54:59;;;;;;;2.50;1.60;;;;;;;;;;5040876;28;20230;-82
2022/09/30 13:57:29;;;;;;;2.78;1.25;;;;;;;;;;5033527;28;20222;-84
2022/09/30 14:00:03;;;;;;;1.77;1.52;;;;;;;;;;5032217;28;20707;-84
2022/09/30 14:02:44;;;;;;;1.50;1.40;;;;;;;;;;5032523;28;20210;-84
2022/09/30 14:05:26;;;;;;;1.90;1.45;;;;;;;;;;5032031;28;20252;-84
2022/09/30 14:08:01;;;;;;;1.15;1.02;;;;;;;;;;5026977;28;20234;-83
2022/09/30 14:10:38;;;;;;;3.53;1.75;;;;;;;;;;5032167;28;20686;-85
2022/09/30 14:13:20;;;;;;;2.13;1.60;;;;;;;;;;5032055;28;20230;-84
2022/09/30 14:15:56;;;;;;;2.55;1.60;;;;;;;;;;5032949;28;20190;-84
2022/09/30 14:18:53;;;;;;;1.42;1.33;;;;;;;;;;5031703;28;20257;-83
2022/09/30 14:21:32;;;;;;;3.63;1.70;;;;;;;;;;5031970;28;20209;-84
2022/09/30 14:24:03;;;;;;;2.03;1.33;;;;;;;;;;5031831;28;20255;-84
2022/09/30 14:26:58;;;;;;;1.88;1.60;;;;;;;;;;5033126;28;20292;-82
2022/09/30 14:29:29;;;;;;;2.47;1.63;;;;;;;;;;5032353;28;20238;-84
2022/09/30 14:31:58;;;;;;;4.32;1.77;;;;;;;;;;5032604;28;20198;-83
2022/09/30 14:34:26;;;;;;;2.28;1.65;;;;;;;;;;5031733;28;20292;-84
2022/09/30 14:36:54;;;;;;;1.35;1.25;;;;;;;;;;5032866;28;20214;-84
2022/09/30 14:39:23;;;;;;;2.45;1.70;;;;;;;;;;5035256;28;20239;-84
2022/09/30 14:41:51;;;;;;;2.53;1.42;;;;;;;;;;5036225;28;20213;-84
2022/09/30 14:47:25;;;;;;;3.05;1.70;;;;;;;;;;5043174;28;20339;-84
2022/09/30 14:49:53;;;;;;;4.22;1.60;;;;;;;;;;5057893;28;20226;-84
2022/09/30 14:52:42;;;;;;;2.03;1.80;;;;;;;;;;5056002;28;20234;-84
2022/09/30 14:55:24;;;;;;;1.90;1.50;;;;;;;;;;5057968;28;20226;-83
2022/09/30 14:57:51;;;;;;;1.92;1.75;;;;;;;;;;5058693;28;20222;-83
2022/09/30 15:00:37;;;;;;;1.63;1.20;;;;;;;;;;5058310;28;20214;-83
2022/09/30 15:03:11;;;;;;;1.52;1.42;;;;;;;;;;5060050;28;20230;-83
2022/09/30 15:05:38;;;;;;;1.73;1.60;;;;;;;;;;5059127;28;20639;-83
2022/09/30 15:08:10;;;;;;;1.70;1.60;;;;;;;;;;5058255;28;20624;-82
2022/09/30 15:10:37;;;;;;;2.78;1.48;;;;;;;;;;5058199;28;20194;-84
2022/09/30 15:13:09;;;;;;;1.98;1.73;;;;;;;;;;5057781;28;20234;-84